createdAt,value
2023-06-19T00:00:00.866Z,70.90
2023-06-19T00:02:30.435Z,71.10
2023-06-19T00:04:58.585Z,71.30
2023-06-19T00:07:26.738Z,71.10
2023-06-19T00:09:55.252Z,69.40
2023-06-19T00:12:23.357Z,71.90
2023-06-19T00:14:51.538Z,72.10
2023-06-19T00:17:19.765Z,72.10
2023-06-19T00:19:50.493Z,71.50
2023-06-19T00:22:18.580Z,69.70
2023-06-19T00:24:46.977Z,70.90
2023-06-19T00:27:15.169Z,70.90
2023-06-19T00:29:43.234Z,70.10
2023-06-19T00:32:11.528Z,70.50
2023-06-19T00:34:39.690Z,70.50
2023-06-19T00:37:09.732Z,70.10
2023-06-19T00:39:37.998Z,71.10
2023-06-19T00:42:07.009Z,71.20
2023-06-19T00:44:35.136Z,71.70
2023-06-19T00:47:06.154Z,71.80
2023-06-19T00:49:34.417Z,72.00
2023-06-19T00:52:02.582Z,72.80
2023-06-19T00:54:33.070Z,71.90
2023-06-19T00:57:01.655Z,72.60
2023-06-19T00:59:30.621Z,72.80
2023-06-19T01:01:59.230Z,72.20
2023-06-19T01:04:27.708Z,72.90
2023-06-19T01:06:59.876Z,73.10
2023-06-19T01:09:35.938Z,72.70
2023-06-19T01:12:11.543Z,73.20
2023-06-19T01:14:45.806Z,72.80
2023-06-19T01:17:14.239Z,73.60
2023-06-19T01:19:42.507Z,73.40
2023-06-19T01:22:12.164Z,73.00
2023-06-19T01:24:40.282Z,76.90
2023-06-19T01:27:08.819Z,74.50
2023-06-19T01:29:36.989Z,74.80
2023-06-19T01:32:10.988Z,75.30
2023-06-19T01:34:41.264Z,76.30
2023-06-19T01:37:12.670Z,75.30
2023-06-19T01:39:42.481Z,74.60
2023-06-19T01:42:12.730Z,75.60
2023-06-19T01:44:41.001Z,75.60
2023-06-19T01:47:13.408Z,75.60
2023-06-19T01:49:41.597Z,75.40
2023-06-19T01:52:11.518Z,76.00
2023-06-19T01:54:39.642Z,76.60
2023-06-19T01:57:08.540Z,77.00
2023-06-19T01:59:37.068Z,79.00
2023-06-19T02:02:07.816Z,78.90
2023-06-19T02:04:36.041Z,79.30
2023-06-19T02:07:04.175Z,80.10
2023-06-19T02:09:33.681Z,80.00
2023-06-19T02:12:01.859Z,80.40
2023-06-19T02:14:29.980Z,80.90
2023-06-19T02:16:58.090Z,80.30
2023-06-19T02:19:26.367Z,84.30
2023-06-19T02:21:54.784Z,84.50
2023-06-19T02:26:52.961Z,84.80
2023-06-19T02:29:21.232Z,85.10
2023-06-19T02:31:49.390Z,86.20
2023-06-19T02:34:17.912Z,87.90
2023-06-19T02:36:48.288Z,88.50
2023-06-19T02:39:16.677Z,90.10
2023-06-19T02:41:47.119Z,89.10
2023-06-19T02:44:16.899Z,88.00
2023-06-19T02:46:45.016Z,88.00
2023-06-19T02:49:13.210Z,89.00
2023-06-19T02:51:42.436Z,89.70
2023-06-19T02:54:10.783Z,90.00
2023-06-19T02:56:40.371Z,90.50
2023-06-19T02:59:08.532Z,90.50
2023-06-19T03:01:38.145Z,90.80
2023-06-19T03:04:06.459Z,90.60
2023-06-19T03:06:41.189Z,90.90
2023-06-19T03:09:13.249Z,90.60
2023-06-19T03:11:41.725Z,90.80
2023-06-19T03:14:10.660Z,92.00
2023-06-19T03:16:40.143Z,92.40
2023-06-19T03:21:37.527Z,92.40
2023-06-19T03:24:06.405Z,93.50
2023-06-19T03:26:34.583Z,93.90
2023-06-19T03:31:32.458Z,93.80
2023-06-19T03:34:02.025Z,94.20
2023-06-19T03:36:30.146Z,94.20
2023-06-19T03:38:58.239Z,94.60
2023-06-19T03:43:54.841Z,93.20
2023-06-19T03:46:23.028Z,91.60
2023-06-19T03:48:51.221Z,92.60
2023-06-19T03:51:20.718Z,91.80
2023-06-19T03:53:48.855Z,91.00
2023-06-19T03:56:16.976Z,92.00
2023-06-19T03:58:45.154Z,93.00
2023-06-19T04:01:13.397Z,92.60
2023-06-19T04:03:42.322Z,93.30
2023-06-19T04:06:10.626Z,93.40
2023-06-19T04:08:40.303Z,93.10
2023-06-19T04:11:08.536Z,92.00
2023-06-19T04:13:36.732Z,91.70
2023-06-19T04:16:05.297Z,90.80
2023-06-19T04:18:33.482Z,90.40
2023-06-19T04:21:01.539Z,90.40
2023-06-19T04:23:32.392Z,88.60
2023-06-19T04:26:01.883Z,88.30
2023-06-19T04:28:30.048Z,86.50
2023-06-19T04:31:01.754Z,87.40
2023-06-19T04:33:30.681Z,86.60
2023-06-19T04:38:27.803Z,85.10
2023-06-19T04:40:56.162Z,86.20
2023-06-19T04:43:26.863Z,86.30
2023-06-19T04:50:57.134Z,86.30
2023-06-19T04:53:26.421Z,81.80
2023-06-19T04:55:56.102Z,85.20
2023-06-19T04:58:25.582Z,84.80
2023-06-19T05:00:53.860Z,86.10
2023-06-19T05:03:23.028Z,86.40
2023-06-19T05:05:51.549Z,86.10
2023-06-19T05:10:48.420Z,85.90
2023-06-19T05:13:16.674Z,87.40
2023-06-19T05:15:46.208Z,87.60
2023-06-19T05:18:14.340Z,86.90
2023-06-19T05:20:42.542Z,88.10
2023-06-19T05:23:10.676Z,85.70
2023-06-19T05:25:38.870Z,82.90
2023-06-19T05:28:07.052Z,81.50
2023-06-19T05:30:36.068Z,79.10
2023-06-19T05:33:05.767Z,77.10
2023-06-19T05:35:34.000Z,76.00
2023-06-19T05:38:02.073Z,74.80
2023-06-19T05:40:30.528Z,73.70
2023-06-19T05:42:58.644Z,74.60
2023-06-19T05:45:26.713Z,73.90
2023-06-19T05:47:54.878Z,74.20
2023-06-19T05:50:24.584Z,74.20
2023-06-19T05:52:52.804Z,75.10
2023-06-19T05:55:21.114Z,76.30
2023-06-19T05:57:49.443Z,75.80
2023-06-19T06:00:18.778Z,76.40
2023-06-19T06:02:47.135Z,77.40
2023-06-19T06:05:15.261Z,77.90
2023-06-19T06:07:44.725Z,77.60
2023-06-19T06:10:13.284Z,76.50
2023-06-19T06:12:41.393Z,76.60
2023-06-19T06:15:10.285Z,79.00
2023-06-19T06:17:38.453Z,79.60
2023-06-19T06:20:12.734Z,80.00
2023-06-19T06:22:41.240Z,80.00
2023-06-19T06:25:13.880Z,79.30
2023-06-19T06:27:43.634Z,78.30
2023-06-19T06:30:13.828Z,78.70
2023-06-19T06:32:42.067Z,79.20
2023-06-19T06:35:10.502Z,78.60
2023-06-19T06:37:38.580Z,76.10
2023-06-19T06:40:10.406Z,76.20
2023-06-19T06:42:40.602Z,76.00
2023-06-19T06:45:09.749Z,76.50
2023-06-19T06:47:38.038Z,77.90
2023-06-19T06:50:07.495Z,77.10
2023-06-19T06:52:35.643Z,77.20
2023-06-19T06:55:03.786Z,76.70
2023-06-19T06:57:31.967Z,77.90
2023-06-19T07:00:01.422Z,78.20
2023-06-19T07:02:29.661Z,79.50
2023-06-19T07:04:57.810Z,76.30
2023-06-19T07:07:25.851Z,75.10
2023-06-19T07:09:53.927Z,75.90
2023-06-19T07:12:22.070Z,75.70
2023-06-19T07:14:50.175Z,76.70
2023-06-19T07:17:21.269Z,76.70
2023-06-19T07:19:49.668Z,76.90
2023-06-19T07:22:17.697Z,77.10
2023-06-19T07:24:45.940Z,76.40
2023-06-19T07:27:14.062Z,76.00
2023-06-19T07:29:42.176Z,76.90
2023-06-19T07:32:10.488Z,76.80
2023-06-19T07:34:40.066Z,77.60
2023-06-19T07:37:08.220Z,77.80
2023-06-19T07:39:36.341Z,78.00
2023-06-19T07:42:04.580Z,79.20
2023-06-19T07:44:32.734Z,79.00
2023-06-19T07:47:00.850Z,80.40
2023-06-19T07:49:28.931Z,80.70
2023-06-19T07:51:58.398Z,80.30
2023-06-19T07:54:26.778Z,80.50
2023-06-19T07:56:55.026Z,78.10
2023-06-19T07:59:23.636Z,78.90
2023-06-19T08:01:51.700Z,78.50
2023-06-19T08:04:19.955Z,78.10
2023-06-19T08:06:48.205Z,76.50
2023-06-19T08:09:17.658Z,77.00
2023-06-19T08:11:45.786Z,77.10
2023-06-19T08:14:13.882Z,77.90
2023-06-19T08:16:42.070Z,78.20
2023-06-19T08:19:10.203Z,79.90
2023-06-19T08:21:38.314Z,79.00
2023-06-19T08:24:06.752Z,79.70
2023-06-19T08:26:36.234Z,80.50
2023-06-19T08:29:04.379Z,79.80
2023-06-19T08:31:32.441Z,78.40
2023-06-19T08:34:01.488Z,78.10
2023-06-19T08:36:29.629Z,77.70
2023-06-19T08:38:57.770Z,76.90
2023-06-19T08:41:25.909Z,77.60
2023-06-19T08:43:56.027Z,77.20
2023-06-19T08:46:24.258Z,78.70
2023-06-19T08:48:52.553Z,78.30
2023-06-19T08:51:20.699Z,78.40
2023-06-19T08:53:51.961Z,78.30
2023-06-19T08:56:20.139Z,78.10
2023-06-19T08:58:48.481Z,77.90
2023-06-19T09:01:20.359Z,78.20
2023-06-19T09:03:53.289Z,78.50
2023-06-19T09:06:22.564Z,77.30
2023-06-19T09:09:00.352Z,78.70
2023-06-19T09:11:28.426Z,78.10
2023-06-19T09:14:00.099Z,78.60
2023-06-19T09:16:39.454Z,79.40
2023-06-19T09:19:07.592Z,79.20
2023-06-19T09:21:38.510Z,78.40
2023-06-19T09:24:08.267Z,80.80
2023-06-19T09:26:36.640Z,79.80
2023-06-19T09:29:15.885Z,79.00
2023-06-19T09:31:46.777Z,80.20
2023-06-19T09:34:14.885Z,78.20
2023-06-19T09:36:43.132Z,80.80
2023-06-19T09:39:12.753Z,79.60
2023-06-19T09:41:42.275Z,78.40
2023-06-19T09:44:13.897Z,80.40
2023-06-19T09:46:46.701Z,78.60
2023-06-19T09:49:18.264Z,80.10
2023-06-19T09:51:46.383Z,80.10
2023-06-19T09:54:17.987Z,79.40
2023-06-19T09:56:46.757Z,78.80
2023-06-19T09:59:14.991Z,79.40
2023-06-19T10:01:44.055Z,78.40
2023-06-19T10:04:13.554Z,80.10
2023-06-19T10:06:47.903Z,77.90
2023-06-19T10:09:18.929Z,75.40
2023-06-19T10:11:48.603Z,74.70
2023-06-19T10:14:19.441Z,75.40
2023-06-19T10:16:48.241Z,73.70
2023-06-19T10:19:17.999Z,74.40
2023-06-19T10:21:50.208Z,73.80
2023-06-19T10:24:20.705Z,73.60
2023-06-19T10:26:59.891Z,73.00
2023-06-19T10:29:29.336Z,74.40
2023-06-19T10:31:58.104Z,74.60
2023-06-19T10:34:36.171Z,75.80
2023-06-19T10:37:06.669Z,75.10
2023-06-19T10:39:35.069Z,74.50
2023-06-19T10:42:07.298Z,72.50
2023-06-19T10:44:35.938Z,73.20
2023-06-19T10:47:04.179Z,72.40
2023-06-19T10:49:32.426Z,73.30
2023-06-19T10:52:02.344Z,72.20
2023-06-19T10:54:32.413Z,72.20
2023-06-19T10:57:04.195Z,72.10
2023-06-19T10:59:32.354Z,71.00
2023-06-19T11:02:00.467Z,71.50
2023-06-19T11:04:28.907Z,70.90
2023-06-19T11:06:57.057Z,73.60
2023-06-19T11:09:25.724Z,73.60
2023-06-19T11:11:55.183Z,73.60
2023-06-19T11:14:33.200Z,71.80
2023-06-19T11:17:01.696Z,71.20
2023-06-19T11:19:34.442Z,72.60
2023-06-19T11:22:03.907Z,71.60
2023-06-19T11:24:32.077Z,71.10
2023-06-19T11:27:00.416Z,68.90
2023-06-19T11:29:31.509Z,69.10
2023-06-19T11:32:09.169Z,68.00
2023-06-19T11:34:38.652Z,69.00
2023-06-19T11:37:15.309Z,67.80
2023-06-19T11:39:45.500Z,69.20
2023-06-19T11:42:13.847Z,67.00
2023-06-19T11:44:56.322Z,68.80
2023-06-19T11:47:26.035Z,68.90
2023-06-19T11:49:54.806Z,68.40
2023-06-19T11:52:22.867Z,68.60
2023-06-19T11:54:50.980Z,68.40
2023-06-19T11:57:19.052Z,68.00
2023-06-19T11:59:47.455Z,68.00
2023-06-19T12:02:15.754Z,64.70
2023-06-19T12:04:45.680Z,65.80
2023-06-19T12:07:13.945Z,65.50
2023-06-19T12:09:42.659Z,65.70
2023-06-19T12:12:11.428Z,65.90
2023-06-19T12:14:40.842Z,66.40
2023-06-19T12:17:09.584Z,65.30
2023-06-19T12:19:37.838Z,63.80
2023-06-19T12:22:07.989Z,63.90
2023-06-19T12:24:36.093Z,66.80
2023-06-19T12:27:04.308Z,65.00
2023-06-19T12:29:32.707Z,62.40
2023-06-19T12:32:04.805Z,64.00
2023-06-19T12:34:33.196Z,62.00
2023-06-19T12:37:01.306Z,61.80
2023-06-19T12:39:30.848Z,62.10
2023-06-19T12:41:58.948Z,62.70
2023-06-19T12:44:27.006Z,60.90
2023-06-19T12:46:55.097Z,61.20
2023-06-19T12:49:23.194Z,59.40
2023-06-19T12:51:53.222Z,58.00
2023-06-19T12:54:21.583Z,61.00
2023-06-19T12:56:52.025Z,58.30
2023-06-19T12:59:20.539Z,58.70
2023-06-19T13:01:48.863Z,58.20
2023-06-19T13:04:17.155Z,59.40
2023-06-19T13:06:45.498Z,58.90
2023-06-19T13:09:13.659Z,58.40
2023-06-19T13:11:41.731Z,58.60
2023-06-19T13:14:11.325Z,58.30
2023-06-19T13:19:10.466Z,60.10
2023-06-19T13:21:38.694Z,59.80
2023-06-19T13:24:07.465Z,58.00
2023-06-19T13:26:35.630Z,57.80
2023-06-19T13:29:03.907Z,58.30
2023-06-19T13:31:33.726Z,57.60
2023-06-19T13:34:01.773Z,58.50
2023-06-19T13:36:30.320Z,58.00
2023-06-19T13:38:58.655Z,56.40
2023-06-19T13:41:27.999Z,58.20
2023-06-19T13:43:56.150Z,57.00
2023-06-19T13:46:24.484Z,57.40
2023-06-19T13:48:54.146Z,56.20
2023-06-19T13:51:23.666Z,58.50
2023-06-19T13:53:52.154Z,56.20
2023-06-19T13:56:20.614Z,56.50
2023-06-19T13:58:48.769Z,57.00
2023-06-19T14:01:17.293Z,56.90
2023-06-19T14:03:45.572Z,56.50
2023-06-19T14:06:15.137Z,56.90
2023-06-19T14:08:43.206Z,57.30
2023-06-19T14:11:11.379Z,56.90
2023-06-19T14:13:39.665Z,56.00
2023-06-19T14:16:08.086Z,55.30
2023-06-19T14:18:37.995Z,57.50
2023-06-19T14:21:06.345Z,54.90
2023-06-19T14:23:41.239Z,55.60
2023-06-19T14:26:09.701Z,55.10
2023-06-19T14:28:40.249Z,54.70
2023-06-19T14:31:08.371Z,55.10
2023-06-19T14:33:38.122Z,53.30
2023-06-19T14:36:06.360Z,54.20
2023-06-19T14:38:36.133Z,56.90
2023-06-19T14:41:04.475Z,56.80
2023-06-19T14:43:34.269Z,60.00
2023-06-19T14:46:04.741Z,56.20
2023-06-19T14:48:32.878Z,57.50
2023-06-19T14:51:05.664Z,54.90
2023-06-19T14:53:35.414Z,53.80
2023-06-19T14:56:03.601Z,54.40
2023-06-19T14:58:31.826Z,54.70
2023-06-19T15:01:00.046Z,53.60
2023-06-19T15:03:28.511Z,55.60
2023-06-19T15:05:56.795Z,55.10
2023-06-19T15:08:25.325Z,54.00
2023-06-19T15:10:55.054Z,53.60
2023-06-19T15:13:23.541Z,53.80
2023-06-19T15:15:52.867Z,54.00
2023-06-19T15:18:21.077Z,54.40
2023-06-19T15:20:49.360Z,53.80
2023-06-19T15:23:17.687Z,52.90
2023-06-19T15:25:46.027Z,53.50
2023-06-19T15:28:16.602Z,54.50
2023-06-19T15:30:44.693Z,54.20
2023-06-19T15:33:12.854Z,53.80
2023-06-19T15:35:41.060Z,53.90
2023-06-19T15:38:09.158Z,52.30
2023-06-19T15:40:38.385Z,52.20
2023-06-19T15:43:06.960Z,52.20
2023-06-19T15:45:36.525Z,51.10
2023-06-19T15:48:04.988Z,51.20
2023-06-19T15:50:34.094Z,51.20
2023-06-19T15:53:02.428Z,52.90
2023-06-19T15:55:30.667Z,52.90
2023-06-19T15:57:58.713Z,52.30
2023-06-19T16:00:27.790Z,52.40
2023-06-19T16:02:57.450Z,52.00
2023-06-19T16:05:26.934Z,51.30
2023-06-19T16:07:55.234Z,51.00
2023-06-19T16:10:23.630Z,51.20
2023-06-19T16:12:51.998Z,50.60
2023-06-19T16:15:25.346Z,51.10
2023-06-19T16:17:55.100Z,51.10
2023-06-19T16:20:25.253Z,50.10
2023-06-19T16:22:54.827Z,50.90
2023-06-19T16:25:23.765Z,50.10
2023-06-19T16:27:52.258Z,52.10
2023-06-19T16:30:20.310Z,52.00
2023-06-19T16:32:48.502Z,51.50
2023-06-19T16:35:22.848Z,51.70
2023-06-19T16:37:54.690Z,50.80
2023-06-19T16:40:24.990Z,52.10
2023-06-19T16:42:53.637Z,51.40
2023-06-19T16:45:23.276Z,50.50
2023-06-19T16:47:51.538Z,50.00
2023-06-19T16:50:19.682Z,51.80
2023-06-19T16:52:49.257Z,51.00
2023-06-19T16:55:19.382Z,50.80
2023-06-19T16:57:47.931Z,52.20
2023-06-19T17:00:17.526Z,52.70
2023-06-19T17:02:46.490Z,52.90
2023-06-19T17:05:15.027Z,52.20
2023-06-19T17:07:43.242Z,52.00
2023-06-19T17:10:13.654Z,52.90
2023-06-19T17:12:43.112Z,52.70
2023-06-19T17:15:12.162Z,51.60
2023-06-19T17:17:40.480Z,52.40
2023-06-19T17:20:13.296Z,52.40
2023-06-19T17:22:41.611Z,51.90
2023-06-19T17:25:10.595Z,51.90
2023-06-19T17:27:38.671Z,51.80
2023-06-19T17:30:10.454Z,52.10
2023-06-19T17:32:38.840Z,52.00
2023-06-19T17:35:10.105Z,52.50
2023-06-19T17:37:38.778Z,52.30
2023-06-19T17:40:09.531Z,51.60
2023-06-19T17:42:38.716Z,51.20
2023-06-19T17:45:10.040Z,51.00
2023-06-19T17:47:38.409Z,51.80
2023-06-19T17:50:07.726Z,52.60
2023-06-19T17:52:35.835Z,51.90
2023-06-19T17:55:03.968Z,51.60
2023-06-19T17:57:32.126Z,51.60
2023-06-19T18:00:01.857Z,52.70
2023-06-19T18:02:34.866Z,53.20
2023-06-19T18:05:03.347Z,52.90
2023-06-19T18:07:31.450Z,53.10
2023-06-19T18:10:00.247Z,53.60
2023-06-19T18:12:28.358Z,53.10
2023-06-19T18:14:56.498Z,54.20
2023-06-19T18:17:24.679Z,53.90
2023-06-19T18:19:54.956Z,53.90
2023-06-19T18:22:23.102Z,54.90
2023-06-19T18:24:51.220Z,55.40
2023-06-19T18:27:20.542Z,55.00
2023-06-19T18:29:48.688Z,55.80
2023-06-19T18:32:16.910Z,55.90
2023-06-19T18:34:45.446Z,56.20
2023-06-19T18:37:15.030Z,56.60
2023-06-19T18:39:43.239Z,57.30
2023-06-19T18:42:11.378Z,57.30
2023-06-19T18:44:39.454Z,57.30
2023-06-19T18:47:07.984Z,57.90
2023-06-19T18:49:36.010Z,57.50
2023-06-19T18:52:04.357Z,57.70
2023-06-19T18:54:33.862Z,58.00
2023-06-19T18:57:01.976Z,58.00
2023-06-19T18:59:30.096Z,57.90
2023-06-19T19:01:58.312Z,58.50
2023-06-19T19:04:26.408Z,58.30
2023-06-19T19:06:54.465Z,60.00
2023-06-19T19:09:22.569Z,62.00
2023-06-19T19:11:53.982Z,60.70
2023-06-19T19:14:22.109Z,63.80
2023-06-19T19:16:50.289Z,63.10
2023-06-19T19:19:18.516Z,64.40
2023-06-19T19:21:46.590Z,65.80
2023-06-19T19:24:14.941Z,66.60
2023-06-19T19:26:45.027Z,68.30
2023-06-19T19:29:14.699Z,69.30
2023-06-19T19:31:42.855Z,70.30
2023-06-19T19:34:11.349Z,71.10
2023-06-19T19:36:39.435Z,70.10
2023-06-19T19:39:07.558Z,69.70
2023-06-19T19:41:35.679Z,70.30
2023-06-19T19:44:03.827Z,69.70
2023-06-19T19:46:33.441Z,69.80
2023-06-19T19:49:01.707Z,70.60
2023-06-19T19:51:29.788Z,71.00
2023-06-19T19:53:57.833Z,70.80
2023-06-19T19:56:26.130Z,70.50
2023-06-19T19:58:54.256Z,71.00
2023-06-19T20:01:22.469Z,70.60
2023-06-19T20:03:52.144Z,70.90
2023-06-19T20:06:20.322Z,71.40
2023-06-19T20:08:48.840Z,72.20
2023-06-19T20:11:16.972Z,72.80
2023-06-19T20:13:45.147Z,72.90
2023-06-19T20:16:13.231Z,72.40
2023-06-19T20:18:41.373Z,72.80
2023-06-19T20:21:10.873Z,72.00
2023-06-19T20:23:39.025Z,72.90
2023-06-19T20:26:07.247Z,73.70
2023-06-19T20:28:35.493Z,74.00
2023-06-19T20:31:03.894Z,73.10
2023-06-19T20:33:32.080Z,73.20
2023-06-19T20:36:02.055Z,74.70
2023-06-19T20:38:31.800Z,74.50
2023-06-19T20:41:01.929Z,73.20
2023-06-19T20:43:30.215Z,74.10
2023-06-19T20:46:01.342Z,74.10
2023-06-19T20:48:29.793Z,75.20
2023-06-19T20:50:58.785Z,76.00
2023-06-19T20:53:27.901Z,76.40
2023-06-19T20:55:57.373Z,77.70
2023-06-19T20:58:28.219Z,78.80
2023-06-19T21:00:56.550Z,78.10
2023-06-19T21:03:28.140Z,79.20
2023-06-19T21:05:57.754Z,80.30
2023-06-19T21:11:01.349Z,80.10
2023-06-19T21:13:31.250Z,78.00
2023-06-19T21:15:59.446Z,79.60
2023-06-19T21:18:27.727Z,80.80
2023-06-19T21:20:56.947Z,79.40
2023-06-19T21:23:25.844Z,78.70
2023-06-19T21:25:54.034Z,81.00
2023-06-19T21:28:23.538Z,79.90
2023-06-19T21:30:51.635Z,79.80
2023-06-19T21:33:21.607Z,79.80
2023-06-19T21:35:51.894Z,81.10
2023-06-19T21:38:20.182Z,81.00
2023-06-19T21:40:48.475Z,80.70
2023-06-19T21:43:17.059Z,81.80
2023-06-19T21:45:46.660Z,82.60
2023-06-19T21:48:14.808Z,82.40
2023-06-19T21:50:42.999Z,82.70
2023-06-19T21:53:11.199Z,84.00
2023-06-19T21:55:39.384Z,84.00
2023-06-19T21:58:07.954Z,82.40
2023-06-19T22:00:36.178Z,83.00
2023-06-19T22:03:05.828Z,82.90
2023-06-19T22:05:34.204Z,84.20
2023-06-19T22:08:02.329Z,82.40
2023-06-19T22:10:30.506Z,83.20
2023-06-19T22:12:58.552Z,84.00
2023-06-19T22:15:26.957Z,83.40
2023-06-19T22:17:55.225Z,82.30
2023-06-19T22:20:25.022Z,82.90
2023-06-19T22:22:53.429Z,82.00
2023-06-19T22:25:21.605Z,82.10
2023-06-19T22:30:23.621Z,83.30
2023-06-19T22:32:52.121Z,85.70
2023-06-19T22:35:20.624Z,84.20
2023-06-19T22:37:50.657Z,85.40
2023-06-19T22:45:21.095Z,85.60
2023-06-19T22:47:50.941Z,86.10
2023-06-19T22:50:19.783Z,85.40
2023-06-19T22:52:48.224Z,86.10
2023-06-19T22:55:17.717Z,86.80
2023-06-19T22:57:45.807Z,86.40
2023-06-19T23:00:15.028Z,86.70
2023-06-19T23:02:44.068Z,86.50
2023-06-19T23:05:13.848Z,85.60
2023-06-19T23:07:43.130Z,85.60
2023-06-19T23:10:12.184Z,88.30
2023-06-19T23:12:41.748Z,87.20
2023-06-19T23:15:10.982Z,88.10
2023-06-19T23:20:13.068Z,88.50
2023-06-19T23:22:42.085Z,88.20
2023-06-19T23:25:12.019Z,87.40
2023-06-19T23:27:41.677Z,87.00
2023-06-19T23:30:10.858Z,86.40
2023-06-19T23:32:39.185Z,87.00
2023-06-19T23:35:07.988Z,86.00
2023-06-19T23:40:08.918Z,86.60
2023-06-19T23:42:37.196Z,86.90
2023-06-19T23:45:07.628Z,87.30
2023-06-19T23:50:04.515Z,88.30
2023-06-19T23:57:41.232Z,87.90
